Terminal Aerodrome Forecast
Issued by NWS

Home | Current Version | Previous Version | Text Only | Print | Product List | Glossary On
Versions: 1 2 3 4 5 6 7 8 9 10 11 12 13 14 15 16 17 18 19 20 21 22 23 24 25 26 27 28 29 30 31
000
FTUS43 KDDC 182206 AAA
TAFHYS
TAF AMD
KHYS 182206Z 1822/1918 20021G29KT P6SM SKC
     FM190000 19016KT P6SM SCT250
     FM190300 17017KT P6SM FEW250 WS020/22050KT
     FM190700 36016KT P6SM SCT250
     FM191100 01017KT P6SM OVC015=

USA.gov is the U.S. government's official web portal to all federal, state and local government web resources and services.